Latest Weather Observations for Merimbula

IDN60801

Issued at 1:02 pm EST Saturday 1 August 2015 (issued every 30 minutes, with the page automatically refreshed every 10 minutes)

About weather observations | Map of weather stations | Latest weather observations for NSW | Other Formats
Station Details ID: 069147 Name: MERIMBULA AIRPORT AWS Lat: -36.91 Lon: 149.90 Height: 1.5 m
Data from the previous 72 hours. | See also: Recent months at Merimbula
Date/Time
EST
Temp
°C
App
Temp
°C
Dew
Point
Rel
Hum
%
Delta-T
°C
Wind Press
QNH
hPa
Press
MSL
hPa
Rain
since 9 am
mm
Dir
 
Spd
km/h
Gust
km/h
Spd
kts
Gust
kts
01/01:00pm 18.3 17.4 7.7 50 5.4 ENE 2 9 1 5 1009.4 1009.4 0.0
01/12:30pm 17.7 17.1 7.4 51 5.2 CALM 0 0 0 0 1009.2 1009.2 0.0
01/12:00pm 17.8 15.7 8.1 53 5.0 SSW 9 13 5 7 1009.8 1009.8 0.0
01/11:30am 16.5 14.6 7.7 56 4.4 SSW 7 13 4 7 1009.9 1009.9 0.0
01/11:00am 15.1 14.2 7.6 61 3.7 ENE 2 6 1 3 1009.9 1009.9 0.0
01/10:30am 13.7 11.5 7.9 68 2.9 SW 9 13 5 7 1010.0 1010.0 0.0
01/10:00am 12.6 11.3 7.5 71 2.5 WSW 4 6 2 3 1010.1 1010.1 0.0
01/09:30am 11.7 9.8 6.8 72 2.3 SW 6 9 3 5 1010.8 1010.8 0.0
01/09:00am 10.0 7.4 6.3 78 1.7 SW 9 11 5 6 1011.4 1011.4 0.0
01/08:30am 8.4 6.4 6.4 87 0.9 NW 6 11 3 6 1011.6 1011.6 0.0
01/08:00am 7.1 6.0 5.3 88 0.8 CALM 0 0 0 0 1011.8 1011.8 0.0
01/07:30am 7.2 6.2 5.5 89 0.8 CALM 0 0 0 0 1011.9 1011.9 0.0
01/07:00am 7.2 5.0 5.5 89 0.8 NW 6 7 3 4 1012.2 1012.2 0.0
01/06:30am 7.4 6.4 5.4 87 0.9 CALM 0 4 0 2 1012.1 1012.1 0.0
01/06:00am 7.6 6.6 5.7 88 0.9 CALM 0 0 0 0 1011.9 1011.9 0.0
01/05:30am 7.5 6.4 5.1 85 1.1 CALM 0 0 0 0 1011.9 1011.9 0.0
01/05:00am 7.6 5.2 5.4 86 1.0 W 7 9 4 5 1012.3 1012.3 0.0
01/04:30am 7.8 6.8 5.6 86 1.0 CALM 0 0 0 0 1012.0 1012.0 0.0
01/04:00am 8.2 5.9 5.8 85 1.1 NNW 7 11 4 6 1012.6 1012.6 0.0
01/03:30am 8.4 5.8 6.2 86 1.0 NW 9 11 5 6 1012.8 1012.8 0.0
01/03:00am 8.1 7.1 5.4 83 1.2 CALM 0 0 0 0 1013.2 1013.2 0.0
01/02:30am 9.1 6.8 5.8 80 1.5 W 7 11 4 6 1013.7 1013.7 0.0
01/02:00am 9.4 6.1 6.3 81 1.4 WNW 13 20 7 11 1014.3 1014.3 0.0
01/01:30am 8.5 7.2 6.1 85 1.1 WNW 2 7 1 4 1014.5 1014.5 0.0
01/01:00am 8.8 4.9 7.1 89 0.8 WNW 17 26 9 14 1015.6 1015.6 0.0
01/12:30am 7.4 5.3 6.5 94 0.4 NW 7 11 4 6 1015.7 1015.7 0.0
01/12:00am 6.8 5.6 4.8 87 0.9 CALM 0 0 0 0 1016.1 1016.1 0.0
 
Date/Time
EST
Temp
°C
App
Temp
°C
Dew
Point
Rel
Hum
%
Delta-T
°C
Wind Press
QNH
hPa
Press
MSL
hPa
Rain
since 9 am
mm
Dir
 
Spd
km/h
Gust
km/h
Spd
kts
Gust
kts
31/11:30pm 7.7 6.7 5.5 86 1.0 CALM 0 0 0 0 1016.7 1016.7 0.0
31/11:00pm 8.8 6.7 5.7 81 1.4 W 6 7 3 4 1017.1 1017.1 0.0
31/10:30pm 11.1 8.4 7.2 77 1.9 NNW 11 17 6 9 1018.0 1018.0 0.0
31/10:00pm 11.7 8.6 7.2 74 2.2 N 13 19 7 10 1018.0 1018.0 0.0
31/09:30pm 11.5 8.6 6.6 72 2.3 N 11 20 6 11 1018.7 1018.7 0.0
31/09:00pm 12.4 9.2 6.7 68 2.7 N 13 20 7 11 1019.1 1019.1 0.0
31/08:30pm 12.3 9.4 6.6 68 2.7 N 11 22 6 12 1019.2 1019.2 0.0
31/08:00pm 12.3 8.9 6.1 66 2.9 N 13 20 7 11 1019.2 1019.2 0.0
31/07:30pm 12.4 9.4 6.0 65 3.0 N 11 19 6 10 1019.1 1019.1 0.0
31/07:00pm 12.3 9.8 6.4 67 2.8 NNE 9 15 5 8 1019.0 1019.0 0.0
31/06:30pm 11.9 9.3 6.0 67 2.8 N 9 17 5 9 1019.1 1019.1 0.0
31/06:00pm 11.8 9.8 6.1 68 2.7 NNW 6 7 3 4 1019.2 1019.2 0.0
31/05:30pm 12.2 9.8 5.4 63 3.1 NE 7 11 4 6 1019.2 1019.2 0.0
31/05:00pm 12.5 9.8 5.4 62 3.3 ENE 9 15 5 8 1019.2 1019.2 0.0
31/04:30pm 12.8 9.7 5.5 61 3.4 ENE 11 17 6 9 1019.0 1019.0 0.0
31/04:00pm 13.2 10.0 4.9 57 3.8 E 11 15 6 8 1019.1 1019.1 0.0
31/03:30pm 14.3 11.2 5.4 55 4.2 ESE 11 15 6 8 1019.0 1019.0 0.0
31/03:00pm 14.4 10.8 5.0 53 4.4 E 13 19 7 10 1019.0 1019.0 0.0
31/02:30pm 14.6 11.0 5.1 53 4.5 ESE 13 20 7 11 1018.6 1018.6 0.0
31/02:00pm 14.8 11.2 4.8 51 4.7 ESE 13 20 7 11 1018.7 1018.7 0.0
31/01:30pm 14.9 10.9 4.9 51 4.7 ESE 15 20 8 11 1019.0 1019.0 0.0
31/01:00pm 15.3 11.8 5.5 52 4.6 ESE 13 20 7 11 1019.2 1019.2 0.0
31/12:30pm 15.4 13.1 4.8 49 5.0 ESE 6 11 3 6 1019.5 1019.5 0.0
31/12:00pm 14.7 12.1 4.1 49 4.9 SW 7 15 4 8 1020.1 1020.1 0.0
31/11:30am 14.6 11.3 4.3 50 4.8 SW 11 19 6 10 1020.6 1020.6 0.0
31/11:00am 14.1 10.3 4.1 51 4.6 SSW 13 19 7 10 1020.8 1020.8 0.0
31/10:30am 14.1 10.4 4.4 52 4.5 SSW 13 20 7 11 1021.0 1021.0 0.0
31/10:00am 13.3 9.1 3.7 52 4.3 SSW 15 22 8 12 1020.9 1020.9 0.0
31/09:30am 12.7 8.5 3.9 55 4.0 SW 15 26 8 14 1020.7 1020.7 0.0
31/09:00am 11.8 7.7 4.1 59 3.4 SW 15 24 8 13 1020.6 1020.6 0.0
31/08:30am 11.1 7.4 4.6 64 2.9 SW 13 19 7 10 1020.4 1020.4 0.0
31/08:00am 10.4 7.2 5.0 69 2.4 SW 11 17 6 9 1020.2 1020.2 0.0
31/07:30am 10.3 7.0 4.7 68 2.5 WSW 11 15 6 8 1019.7 1019.7 0.0
31/07:00am 10.1 6.4 4.5 68 2.5 SW 13 24 7 13 1019.3 1019.3 0.0
31/06:30am 10.1 6.8 4.5 68 2.5 SW 11 19 6 10 1018.6 1018.6 0.0
31/06:00am 10.4 7.4 4.3 66 2.7 SW 9 17 5 9 1018.1 1018.1 0.0
31/05:30am 10.5 6.8 4.4 66 2.7 SSE 13 19 7 10 1017.6 1017.6 0.0
31/05:00am 8.4 6.4 4.6 77 1.7 WSW 4 13 2 7 1016.9 1016.9 0.0
31/04:30am 8.5 6.7 5.3 80 1.4 NNW 4 9 2 5 1016.4 1016.4 0.0
31/04:00am 8.5 7.3 4.7 77 1.7 CALM 0 0 0 0 1016.2 1016.2 0.0
31/03:30am 8.5 4.8 4.3 75 1.8 NW 13 17 7 9 1015.8 1015.8 0.0
31/03:00am 8.7 5.0 4.3 74 1.9 NW 13 17 7 9 1015.6 1015.6 0.0
31/02:30am 10.5 7.1 4.2 65 2.8 WSW 11 19 6 10 1015.6 1015.6 0.0
31/02:00am 11.1 7.0 2.4 55 3.7 WSW 13 17 7 9 1015.6 1015.6 0.0
31/01:30am 9.2 5.4 4.0 70 2.3 W 13 17 7 9 1015.7 1015.7 0.0
31/01:00am 8.2 5.5 3.5 72 2.0 SW 7 17 4 9 1015.3 1015.3 0.0
31/12:30am 8.9 7.4 4.9 76 1.8 WNW 2 11 1 6 1014.9 1014.9 0.0
31/12:00am 9.0 7.5 4.8 75 1.9 NW 2 7 1 4 1014.8 1014.8 0.0
 
Date/Time
EST
Temp
°C
App
Temp
°C
Dew
Point
Rel
Hum
%
Delta-T
°C
Wind Press
QNH
hPa
Press
MSL
hPa
Rain
since 9 am
mm
Dir
 
Spd
km/h
Gust
km/h
Spd
kts
Gust
kts
30/11:30pm 9.4 7.1 5.8 78 1.6 WNW 7 11 4 6 1014.3 1014.3 0.0
30/11:00pm 9.7 6.8 6.4 80 1.5 NNW 11 13 6 7 1014.0 1014.0 0.0
30/10:30pm 9.1 7.1 7.1 87 0.9 WNW 7 9 4 5 1014.3 1014.3 0.0
30/10:00pm 8.7 7.5 6.3 85 1.1 WNW 2 9 1 5 1014.0 1014.0 0.0
30/09:30pm 9.3 7.4 7.4 88 0.9 SW 7 11 4 6 1014.0 1014.0 0.0
30/09:00pm 9.1 8.0 6.7 85 1.1 SSW 2 11 1 6 1013.9 1013.9 0.0
30/08:30pm 9.7 7.4 7.5 86 1.0 NW 9 13 5 7 1013.7 1013.7 0.0
30/08:00pm 10.0 7.8 7.9 87 1.0 NW 9 13 5 7 1014.0 1014.0 0.0
30/07:30pm 9.3 8.6 7.1 86 1.0 CALM 0 0 0 0 1014.3 1014.3 0.0
30/07:00pm 9.6 8.3 7.5 87 1.0 WSW 4 9 2 5 1013.8 1013.8 0.0
30/06:30pm 9.8 8.1 7.4 85 1.1 W 6 9 3 5 1014.2 1014.2 0.0
30/06:00pm 9.7 9.0 6.8 82 1.4 CALM 0 0 0 0 1014.3 1014.3 0.0
30/05:30pm 10.1 9.4 6.8 80 1.6 CALM 0 0 0 0 1014.4 1014.4 0.0
30/05:00pm 11.0 9.1 6.6 74 2.1 NNE 6 7 3 4 1014.3 1014.3 0.0
30/04:30pm 12.0 10.0 6.9 71 2.4 NNE 7 11 4 6 1014.8 1014.8 0.0
30/04:00pm 12.5 10.2 5.9 64 3.1 NNE 7 15 4 8 1015.2 1015.2 0.0
30/03:30pm 13.4 10.8 6.3 62 3.4 NE 9 20 5 11 1015.4 1015.4 0.0
30/03:00pm 12.8 9.9 6.6 66 3.0 NE 11 17 6 9 1015.8 1015.8 0.0
30/02:30pm 13.7 10.5 6.8 63 3.3 NE 13 20 7 11 1016.2 1016.2 0.0
30/02:00pm 13.1 10.1 5.8 61 3.4 NE 11 19 6 10 1016.8 1016.8 0.0
30/01:30pm 14.1 10.5 4.9 54 4.3 ENE 13 20 7 11 1017.4 1017.4 0.0
30/01:00pm 15.1 11.9 5.3 52 4.6 E 11 17 6 9 1018.3 1018.3 0.0
30/12:30pm 14.8 11.5 4.8 51 4.7 E 11 15 6 8 1018.9 1018.9 0.0
30/12:00pm 15.1 12.2 4.8 50 4.8 E 9 15 5 8 1019.4 1019.4 0.0
30/11:30am 14.4 11.6 2.9 46 5.1 ESE 7 13 4 7 1020.1 1020.1 0.0
30/11:00am 13.7 12.1 4.3 53 4.3 ESE 2 11 1 6 1020.6 1020.6 0.0
30/10:30am 13.5 12.1 3.6 51 4.5 CALM 0 0 0 0 1021.1 1021.1 0.0
30/10:00am 12.2 10.8 3.4 55 3.9 CALM 0 0 0 0 1021.7 1021.7 0.0
30/09:30am 9.9 8.7 4.7 70 2.3 CALM 0 0 0 0 1022.0 1022.0 0.0
30/09:00am 7.9 5.6 5.5 85 1.1 NW 7 9 4 5 1022.4 1022.4 0.0
30/08:30am 6.3 4.5 5.3 93 0.4 NW 4 9 2 5 1022.5 1022.5 0.0
30/08:00am 5.2 4.0 4.8 97 0.2 CALM 0 9 0 5 1022.9 1022.9 0.0
30/07:30am 2.4 0.3 1.5 94 0.3 W 2 6 1 3 1023.1 1023.1 0.0
30/07:00am 3.0 -0.3 2.4 96 0.2 SSW 9 11 5 6 1023.0 1023.0 0.0
30/06:30am 3.2 0.3 2.6 96 0.2 SW 7 9 4 5 1023.0 1023.0 0.0
30/06:00am 3.6 0.8 3.0 96 0.2 W 7 9 4 5 1022.9 1022.9 0.0
30/05:49am 3.2 0.5 2.6 96 0.2 NW 6 7 3 4 1022.9 1022.9 0.0
30/05:35am 3.3 0.4 2.7 96 0.2 NW 7 9 4 5 1023.2 1023.2 0.0
30/05:30am 3.5 0.3 2.9 96 0.2 WNW 9 11 5 6 1023.1 1023.1 0.0
30/05:00am 3.5 0.6 2.8 95 0.3 S 7 9 4 5 1022.9 1022.9 0.0
30/04:30am 4.8 1.9 4.4 97 0.2 WNW 9 13 5 7 1023.6 1023.6 0.0
30/04:29am 4.9 2.0 4.5 97 0.2 NW 9 13 5 7 1023.7 1023.7 0.0
30/04:10am 4.0 2.6 3.3 95 0.3 CALM 0 0 0 0 1023.5 1023.5 0.0
30/04:00am 4.5 3.2 3.9 96 0.2 CALM 0 0 0 0 1023.7 1023.7 0.0
30/03:30am 4.5 3.1 3.6 94 0.4 CALM 0 0 0 0 1024.2 1024.2 0.0
30/03:00am 5.6 4.5 4.9 95 0.3 CALM 0 0 0 0 1024.8 1024.8 0.0
30/02:30am 5.2 3.9 4.2 93 0.4 CALM 0 0 0 0 1025.0 1025.0 0.0
30/02:00am 6.5 4.7 5.6 94 0.4 W 4 9 2 5 1025.1 1025.1 0.0
30/01:30am 6.6 5.7 5.9 95 0.3 CALM 0 0 0 0 1025.6 1025.6 0.0
30/01:00am 6.3 5.2 5.3 93 0.4 CALM 0 0 0 0 1026.0 1026.0 0.0
30/12:30am 6.3 4.5 5.3 93 0.4 WSW 4 6 2 3 1026.6 1026.6 0.0
30/12:00am 6.6 4.8 5.4 92 0.5 SW 4 11 2 6 1027.3 1027.3 0.0
 
Date/Time
EST
Temp
°C
App
Temp
°C
Dew
Point
Rel
Hum
%
Delta-T
°C
Wind Press
QNH
hPa
Press
MSL
hPa
Rain
since 9 am
mm
Dir
 
Spd
km/h
Gust
km/h
Spd
kts
Gust
kts
29/11:30pm 7.0 4.8 5.5 90 0.7 SW 6 7 3 4 1027.7 1027.7 0.0
29/11:00pm 7.2 6.2 5.5 89 0.8 CALM 0 0 0 0 1028.0 1028.0 0.0
29/10:30pm 7.7 6.9 6.3 91 0.6 CALM 0 0 0 0 1028.2 1028.2 0.0
29/10:00pm 7.4 6.5 6.0 91 0.6 CALM 0 0 0 0 1028.4 1028.4 0.0
29/09:30pm 7.2 6.3 6.0 92 0.5 CALM 0 0 0 0 1028.7 1028.7 0.0
29/09:00pm 7.1 6.1 5.4 89 0.7 CALM 0 0 0 0 1028.8 1028.8 0.0
29/08:30pm 7.6 5.5 5.7 88 0.9 WNW 6 7 3 4 1029.4 1029.4 0.0
29/08:00pm 7.9 6.9 5.7 86 1.0 CALM 0 0 0 0 1029.4 1029.4 0.0
29/07:30pm 7.9 7.0 6.0 88 0.9 CALM 0 0 0 0 1029.9 1029.9 0.0
29/07:00pm 7.4 6.4 5.5 88 0.8 CALM 0 0 0 0 1029.9 1029.9 0.0
29/06:30pm 7.4 6.3 5.0 85 1.1 CALM 0 0 0 0 1029.4 1029.4 0.0
29/06:00pm 8.4 7.4 5.5 82 1.3 CALM 0 0 0 0 1029.7 1029.7 0.0
29/05:30pm 9.9 8.8 5.3 73 2.1 CALM 0 0 0 0 1029.6 1029.6 0.0
29/05:00pm 11.6 9.2 5.3 65 2.9 NE 7 11 4 6 1029.3 1029.3 0.0
29/04:30pm 12.5 9.8 5.4 62 3.3 ENE 9 17 5 9 1029.3 1029.3 0.0
29/04:00pm 12.9 10.1 5.1 59 3.6 NE 9 15 5 8 1029.5 1029.5 0.0
29/03:30pm 13.8 10.5 4.7 54 4.2 NE 11 17 6 9 1029.8 1029.8 0.0
29/03:00pm 14.2 10.4 5.6 56 4.0 ENE 15 20 8 11 1029.5 1029.5 0.0
29/02:30pm 14.4 11.0 5.7 56 4.1 NE 13 20 7 11 1029.5 1029.5 0.0
29/02:00pm 14.3 10.3 5.1 54 4.3 NE 15 22 8 12 1029.7 1029.7 0.0
29/01:30pm 14.3 10.2 4.6 52 4.5 NNE 15 26 8 14 1030.2 1030.2 0.0

Other Formats:

Comma delimited format used in spreadsheet applications
http://www.bom.gov.au/fwo/IDN60801/IDN60801.95929.axf

JavaScript Object Notation format (JSON) in row-major order
http://www.bom.gov.au/fwo/IDN60801/IDN60801.95929.json